Dades meteomassalio
Diari Summary for Gener 2, 2018 Units:  Metric    English   Both
« Previous Day
Next Day »
Diari Semanal Mensual Anual Personalitzat
  Maxima: Minima: Mijana:
Temperatura: -17.8 °C -15 °C -10.9 °C
Rosada: -17.8 °C -17.1 °C -14.2 °C
Humitat: Humidity % 49 % 68 %
Velocitat del vent: 0 km/h 0 km/h 39.3 km/h
Racha vent: 0 km/h - -
Vent:- - NW
Pressio: 0 hPa 34797.9 hPa -
Pluja: 0 mm    
Historical Graphs
 
 
Tabular Data for Gener 2, 2018
Time Temperature Dew Point Pressure Wind Wind Speed Wind Gust Humidity Rainfall Rate (Hourly) solar Conditions
-17.8 °C -17.8 °C 0 hPa Calm     Humidity % 0 mm SolarRadiationWatts/m^2 W/m2 Conditions
00:02 -11.6 °C -15 °C 34875.8 hPa North 29.8 km/h 29.8 km/h 66 % 0 mm 0.0 W/m2 CLR
00:07 -11.6 °C -15 °C 34865.6 hPa North 29.8 km/h 29.8 km/h 66 % 0 mm 0.0 W/m2 CLR
00:08 -11.6 °C -15 °C 34865.6 hPa North 32.8 km/h 32.8 km/h 66 % 0 mm 0.0 W/m2 CLR
00:13 -11.3 °C -14.7 °C 34865.6 hPa North 26.9 km/h 26.9 km/h 66 % 0 mm 0.0 W/m2 CLR
00:18 -11.6 °C -14.9 °C 34865.6 hPa NNW 29.8 km/h 29.8 km/h 67 % 0 mm 0.0 W/m2 CLR
00:23 -11.6 °C -14.8 °C 34865.6 hPa North 25.9 km/h 25.9 km/h 68 % 0 mm 0.0 W/m2 CLR
00:24 -11.6 °C -14.8 °C 34865.6 hPa North 29.8 km/h 29.8 km/h 68 % 0 mm 0.0 W/m2 CLR
00:27 -11.9 °C -15.1 °C 34865.6 hPa North 26.9 km/h 26.9 km/h 68 % 0 mm 0.0 W/m2 CLR
00:30 -11.9 °C -15.1 °C 34865.6 hPa NNW 26.9 km/h 26.9 km/h 68 % 0 mm 0.0 W/m2 CLR
00:35 -11.9 °C -14.8 °C 34852.1 hPa North 29.8 km/h 29.8 km/h 70 % 0 mm 0.0 W/m2 CLR
00:37 -11.9 °C -14.8 °C 34852.1 hPa NNW 29.8 km/h 29.8 km/h 70 % 0 mm 0.0 W/m2 CLR
00:40 -12.2 °C -15 °C 34852.1 hPa North 29.8 km/h 29.8 km/h 71 % 0 mm 0.0 W/m2 CLR
00:45 -11.9 °C -14.6 °C 34865.6 hPa North 32.8 km/h 32.8 km/h 72 % 0 mm 0.0 W/m2 CLR
00:47 -11.9 °C -14.6 °C 34865.6 hPa NNE 41.7 km/h 41.7 km/h 72 % 0 mm 0.0 W/m2 CLR
00:52 -11.9 °C -14.5 °C 34865.6 hPa North 41.7 km/h 41.7 km/h 73 % 0 mm 0.0 W/m2 CLR
00:57 -11.9 °C -14.5 °C 34865.6 hPa North 32.8 km/h 32.8 km/h 73 % 0 mm 0.0 W/m2 CLR
00:58 -11.9 °C -14.5 °C 34865.6 hPa NNW 31.1 km/h 31.1 km/h 73 % 0 mm 0.0 W/m2 CLR
01:00 -11.9 °C -14.5 °C 34865.6 hPa North 44.7 km/h 44.7 km/h 73 % 0 mm 0.0 W/m2 CLR
01:03 -11.9 °C -14.4 °C 34865.6 hPa NNE 41.7 km/h 41.7 km/h 74 % 0 mm 0.0 W/m2 CLR
01:07 -11.9 °C -14.3 °C 34865.6 hPa North 38.8 km/h 38.8 km/h 75 % 0 mm 0.0 W/m2 CLR
01:09 -11.9 °C -14.3 °C 34865.6 hPa North 38.8 km/h 38.8 km/h 75 % 0 mm 0.0 W/m2 CLR
01:13 -11.9 °C -14.3 °C 34865.6 hPa North 38.8 km/h 38.8 km/h 75 % 0 mm 0.0 W/m2 CLR
01:18 -11.9 °C -14.2 °C 34865.6 hPa North 32.8 km/h 32.8 km/h 76 % 0 mm 0.0 W/m2 CLR
01:19 -11.9 °C -14.2 °C 34865.6 hPa North 32.8 km/h 32.8 km/h 76 % 0 mm 0.0 W/m2 CLR
01:24 -11.9 °C -14.1 °C 34865.6 hPa North 41.7 km/h 41.7 km/h 77 % 0 mm 0.0 W/m2 CLR
01:26 -11.9 °C -14.1 °C 34865.6 hPa North 38.8 km/h 38.8 km/h 77 % 0 mm 0.0 W/m2 CLR
01:27 -11.9 °C -14.1 °C 34865.6 hPa NNW 35.7 km/h 35.7 km/h 77 % 0 mm 0.0 W/m2 CLR
01:32 -11.9 °C -14.1 °C 34865.6 hPa NNW 44.7 km/h 44.7 km/h 77 % 0 mm 0.0 W/m2 CLR
01:33 -11.9 °C -14.1 °C 34865.6 hPa North 33.6 km/h 33.6 km/h 77 % 0 mm 0.0 W/m2 CLR
01:37 -11.9 °C -14.1 °C 34865.6 hPa North 32.8 km/h 32.8 km/h 77 % 0 mm 0.0 W/m2 CLR
01:38 -11.9 °C -14.1 °C 34865.6 hPa North 38.8 km/h 38.8 km/h 77 % 0 mm 0.0 W/m2 CLR
01:43 -11.9 °C -14.1 °C 34865.6 hPa North 29.8 km/h 29.8 km/h 77 % 0 mm 0.0 W/m2 CLR
01:45 -11.9 °C -13.9 °C 34865.6 hPa North 44.7 km/h 44.7 km/h 78 % 0 mm 0.0 W/m2 CLR
01:47 -11.9 °C -13.9 °C 34865.6 hPa North 41.7 km/h 41.7 km/h 78 % 0 mm 0.0 W/m2 CLR
01:51 -11.9 °C -13.9 °C 34865.6 hPa North 38.8 km/h 38.8 km/h 78 % 0 mm 0.0 W/m2 CLR
01:56 -11.9 °C -13.8 °C 34865.6 hPa North 53.6 km/h 53.6 km/h 79 % 0 mm 0.0 W/m2 CLR
01:57 -11.9 °C -13.8 °C 34865.6 hPa NNW 38.8 km/h 38.8 km/h 79 % 0 mm 0.0 W/m2 CLR
02:02 -11.9 °C -13.8 °C 34852.1 hPa North 41.7 km/h 41.7 km/h 79 % 0 mm 0.0 W/m2 CLR
02:03 -11.9 °C -13.8 °C 34852.1 hPa North 41.7 km/h 41.7 km/h 79 % 0 mm 0.0 W/m2 CLR
02:05 -11.9 °C -13.8 °C 34852.1 hPa North 32.8 km/h 34.8 km/h 79 % 0 mm 0.0 W/m2 CLR
02:09 -11.9 °C -13.8 °C 34852.1 hPa North 41.7 km/h 41.7 km/h 79 % 0 mm 0.0 W/m2 CLR
02:11 -11.9 °C -13.8 °C 34852.1 hPa North 35.7 km/h 35.7 km/h 79 % 0 mm 0.0 W/m2 CLR
02:16 -11.9 °C -13.8 °C 34852.1 hPa North 53.6 km/h 53.6 km/h 79 % 0 mm 0.0 W/m2 CLR
02:21 -11.9 °C -13.9 °C 34852.1 hPa North 53.6 km/h 53.6 km/h 78 % 0 mm 0.0 W/m2 CLR
02:22 -11.9 °C -13.9 °C 34852.1 hPa NNW 53.6 km/h 53.6 km/h 78 % 0 mm 0.0 W/m2 CLR
02:23 -11.9 °C -13.9 °C 34852.1 hPa North 47.6 km/h 47.6 km/h 78 % 0 mm 0.0 W/m2 CLR
02:28 -11.9 °C -13.9 °C 34852.1 hPa North 47.6 km/h 47.6 km/h 78 % 0 mm 0.0 W/m2 CLR
02:33 -11.9 °C -13.9 °C 34852.1 hPa NNW 53.6 km/h 53.6 km/h 78 % 0 mm 0.0 W/m2 CLR
02:34 -11.9 °C -13.9 °C 34852.1 hPa NNW 44.7 km/h 44.7 km/h 78 % 0 mm 0.0 W/m2 CLR
02:38 -11.9 °C -13.9 °C 34865.6 hPa North 50.7 km/h 50.7 km/h 78 % 0 mm 0.0 W/m2 CLR
02:39 -11.9 °C -13.9 °C 34865.6 hPa North 38.8 km/h 38.8 km/h 78 % 0 mm 0.0 W/m2 CLR
02:44 -11.9 °C -13.9 °C 34852.1 hPa North 44.7 km/h 44.7 km/h 78 % 0 mm 0.0 W/m2 CLR
02:47 -11.9 °C -13.9 °C 34852.1 hPa North 53.6 km/h 53.6 km/h 78 % 0 mm 0.0 W/m2 CLR
02:48 -11.9 °C -13.9 °C 34852.1 hPa North 53.6 km/h 53.6 km/h 78 % 0 mm 0.0 W/m2 CLR
02:53 -12.2 °C -14.3 °C 34865.6 hPa North 41.7 km/h 41.7 km/h 78 % 0 mm 0.0 W/m2 CLR
02:58 -12.2 °C -14.3 °C 34865.6 hPa NNW 53.6 km/h 53.6 km/h 78 % 0 mm 0.0 W/m2 CLR
02:59 -12.2 °C -14.3 °C 34865.6 hPa NNW 53.6 km/h 53.6 km/h 78 % 0 mm 0.0 W/m2 CLR
03:04 -12.2 °C -14.3 °C 34865.6 hPa North 47.6 km/h 47.6 km/h 78 % 0 mm 0.0 W/m2 CLR
03:07 -12.2 °C -14.2 °C 34852.1 hPa North 50.7 km/h 50.7 km/h 79 % 0 mm 0.0 W/m2 CLR
03:09 -12.2 °C -14.3 °C 34852.1 hPa North 44.7 km/h 44.7 km/h 78 % 0 mm 0.0 W/m2 CLR
03:10 -12.2 °C -14.2 °C 34852.1 hPa NNW 50.7 km/h 50.7 km/h 79 % 0 mm 0.0 W/m2 CLR
03:13 -12.2 °C -14.2 °C 34865.6 hPa NNW 50.7 km/h 50.7 km/h 79 % 0 mm 0.0 W/m2 CLR
03:15 -12.2 °C -14.2 °C 34865.6 hPa NNW 44.7 km/h 44.7 km/h 79 % 0 mm 0.0 W/m2 CLR
03:20 -12.2 °C -14.2 °C 34865.6 hPa North 41.7 km/h 41.7 km/h 79 % 0 mm 0.0 W/m2 CLR
03:21 -12.2 °C -14.2 °C 34865.6 hPa NNW 41.7 km/h 41.7 km/h 79 % 0 mm 0.0 W/m2 CLR
03:23 -12.2 °C -14.1 °C 34865.6 hPa NNW 44.7 km/h 44.7 km/h 80 % 0 mm 0.0 W/m2 CLR
03:27 -12.2 °C -14.1 °C 34865.6 hPa North 36.2 km/h 36.2 km/h 80 % 0 mm 0.0 W/m2 CLR
03:30 -12.2 °C -14.1 °C 34852.1 hPa NNW 50.7 km/h 50.7 km/h 80 % 0 mm 0.0 W/m2 CLR
03:32 -12.2 °C -14.1 °C 34852.1 hPa North 47.6 km/h 47.6 km/h 80 % 0 mm 0.0 W/m2 CLR
03:37 -12.2 °C -14.1 °C 34865.6 hPa North 47.6 km/h 47.6 km/h 80 % 0 mm 0.0 W/m2 CLR
03:38 -12.2 °C -14.1 °C 34865.6 hPa NNW 49.2 km/h 49.2 km/h 80 % 0 mm 0.0 W/m2 CLR
03:43 -12.2 °C -13.9 °C 34852.1 hPa North 47.6 km/h 47.6 km/h 81 % 0 mm 0.0 W/m2 CLR
03:44 -12.2 °C -13.9 °C 34852.1 hPa NNW 41.7 km/h 41.7 km/h 81 % 0 mm 0.0 W/m2 CLR
03:50 -12.2 °C -13.9 °C 34852.1 hPa North 44.7 km/h 44.7 km/h 81 % 0 mm 0.0 W/m2 CLR
03:55 -12.2 °C -13.8 °C 34852.1 hPa NNW 44.7 km/h 44.7 km/h 82 % 0 mm 0.0 W/m2 CLR
04:00 -12.2 °C -13.8 °C 34852.1 hPa NNW 44.1 km/h 44.1 km/h 82 % 0 mm 0.0 W/m2 CLR
04:01 -12.2 °C -13.8 °C 34852.1 hPa NNW 51.8 km/h 51.8 km/h 82 % 0 mm 0.0 W/m2 CLR
04:06 -12.2 °C -13.8 °C 34852.1 hPa NNW 53.6 km/h 53.6 km/h 82 % 0 mm 0.0 W/m2 CLR
04:07 -12.2 °C -13.8 °C 34852.1 hPa NNW 62.1 km/h 62.1 km/h 83 % 0 mm 0.0 W/m2 CLR
04:16 -12.2 °C -13.8 °C 34852.1 hPa NNW 38.8 km/h 38.8 km/h 83 % 0 mm 0.0 W/m2 CLR
04:20 -12.2 °C -13.7 °C 34852.1 hPa NNW 59.5 km/h 59.5 km/h 84 % 0 mm 0.0 W/m2 CLR
04:26 -12.2 °C -13.7 °C 34852.1 hPa North 50.7 km/h 50.7 km/h 84 % 0 mm 0.0 W/m2 CLR
04:27 -12.2 °C -13.7 °C 34852.1 hPa North 38.8 km/h 38.8 km/h 84 % 0 mm 0.0 W/m2 CLR
04:31 -12.2 °C -13.7 °C 34852.1 hPa NNW 50.7 km/h 50.7 km/h 84 % 0 mm 0.0 W/m2 CLR
04:36 -12.2 °C -13.6 °C 34852.1 hPa NNW 59.5 km/h 59.5 km/h 85 % 0 mm 0.0 W/m2 CLR
04:42 -12.2 °C -13.7 °C 34852.1 hPa North 41.7 km/h 41.7 km/h 84 % 0 mm 0.0 W/m2 CLR
04:49 -12.2 °C -13.7 °C 34841.9 hPa NNW 50.7 km/h 50.7 km/h 84 % 0 mm 0.0 W/m2 CLR
04:54 -12.2 °C -13.7 °C 34841.9 hPa NNW 29.8 km/h 29.8 km/h 84 % 0 mm 0.0 W/m2 CLR
04:55 -12.2 °C -13.7 °C 34841.9 hPa NNW 29.8 km/h 29.8 km/h 84 % 0 mm 0.0 W/m2 CLR
05:00 -12.2 °C -13.7 °C 34841.9 hPa NNW 47.6 km/h 47.6 km/h 84 % 0 mm 0.0 W/m2 CLR
05:01 -12.2 °C -13.6 °C 34841.9 hPa NNE 47.6 km/h 47.6 km/h 85 % 0 mm 0.0 W/m2 CLR
05:02 -12.2 °C -13.7 °C 34841.9 hPa North 44.7 km/h 44.7 km/h 84 % 0 mm 0.0 W/m2 CLR
05:07 -12.2 °C -13.6 °C 34841.9 hPa NW 41.7 km/h 41.7 km/h 85 % 0 mm 0.0 W/m2 CLR
05:10 -12.2 °C -13.6 °C 34852.1 hPa North 38.8 km/h 38.8 km/h 85 % 0 mm 0.0 W/m2 CLR
05:12 -12.2 °C -13.6 °C 34852.1 hPa NNW 46.7 km/h 46.7 km/h 85 % 0 mm 0.0 W/m2 CLR
05:17 -12.2 °C -13.6 °C 34852.1 hPa NNW 50.7 km/h 50.7 km/h 85 % 0 mm 0.0 W/m2 CLR
05:18 -12.2 °C -13.6 °C 34841.9 hPa NNW 47.6 km/h 47.6 km/h 85 % 0 mm 0.0 W/m2 CLR
05:20 -12.2 °C -13.6 °C 34852.1 hPa NNW 47.6 km/h 47.6 km/h 85 % 0 mm 0.0 W/m2 CLR
05:24 -12.2 °C -13.6 °C 34841.9 hPa North 38.8 km/h 38.8 km/h 85 % 0 mm 0.0 W/m2 CLR
05:28 -12.2 °C -13.6 °C 34841.9 hPa NW 41.7 km/h 41.7 km/h 85 % 0 mm 0.0 W/m2 CLR
05:31 -12.2 °C -13.6 °C 34841.9 hPa NW 32.8 km/h 32.8 km/h 85 % 0 mm 0.0 W/m2 CLR
05:36 -12.2 °C -13.6 °C 34841.9 hPa NNW 38.8 km/h 38.8 km/h 85 % 0 mm 0.0 W/m2 CLR
05:41 -12.2 °C -13.6 °C 34841.9 hPa NNW 44.7 km/h 44.7 km/h 85 % 0 mm 0.0 W/m2 CLR
05:43 -12.2 °C -13.6 °C 34841.9 hPa North 32.8 km/h 32.8 km/h 85 % 0 mm 0.0 W/m2 CLR
05:48 -12.2 °C -13.6 °C 34841.9 hPa North 32.8 km/h 32.8 km/h 85 % 0 mm 0.0 W/m2 CLR
05:49 -12.2 °C -13.6 °C 34841.9 hPa North 33.6 km/h 33.6 km/h 85 % 0 mm 0.0 W/m2 CLR
05:54 -12.2 °C -13.6 °C 34841.9 hPa NNW 38.8 km/h 38.8 km/h 85 % 0 mm 0.0 W/m2 CLR
06:05 -12.2 °C -13.6 °C 34841.9 hPa NNW 20.9 km/h 20.9 km/h 85 % 0 mm 0.0 W/m2 CLR
06:06 -12.2 °C -13.4 °C 34841.9 hPa NNW 25.9 km/h 25.9 km/h 86 % 0 mm 0.0 W/m2 CLR
06:10 -12.2 °C -13.4 °C 34841.9 hPa NNW 29.8 km/h 29.8 km/h 86 % 0 mm 0.0 W/m2 CLR
06:11 -12.2 °C -13.4 °C 34841.9 hPa NNW 29.8 km/h 29.8 km/h 86 % 0 mm 0.0 W/m2 CLR
06:16 -12.2 °C -13.4 °C 34852.1 hPa North 23.8 km/h 23.8 km/h 86 % 0 mm 0.0 W/m2 CLR
06:21 -12.2 °C -13.4 °C 34841.9 hPa NW 20.9 km/h 20.9 km/h 86 % 0 mm 0.0 W/m2 CLR
06:22 -12.2 °C -13.4 °C 34841.9 hPa NW 20.9 km/h 20.9 km/h 86 % 0 mm 0.0 W/m2 CLR
06:28 -12.2 °C -13.4 °C 34841.9 hPa NNW 29.8 km/h 29.8 km/h 86 % 0 mm 0.0 W/m2 CLR
06:29 -12.2 °C -13.4 °C 34841.9 hPa NNW 29.8 km/h 29.8 km/h 86 % 0 mm 0.0 W/m2 CLR
06:32 -12.2 °C -13.4 °C 34841.9 hPa NW 23.8 km/h 23.8 km/h 86 % 0 mm 0.0 W/m2 CLR
06:35 -12.2 °C -13.4 °C 34841.9 hPa NW 29.8 km/h 29.8 km/h 86 % 0 mm 0.0 W/m2 CLR
06:40 -12.2 °C -13.4 °C 34841.9 hPa NW 18.2 km/h 18.2 km/h 86 % 0 mm 0.0 W/m2 CLR
06:41 -12.2 °C -13.4 °C 34841.9 hPa NW 20.9 km/h 20.9 km/h 86 % 0 mm 0.0 W/m2 CLR
06:42 -12.2 °C -13.4 °C 34841.9 hPa NW 20.9 km/h 20.9 km/h 86 % 0 mm 0.0 W/m2 CLR
06:46 -12.6 °C -13.8 °C 34841.9 hPa NW 17.9 km/h 17.9 km/h 86 % 0 mm 0.0 W/m2 CLR
06:53 -12.6 °C -13.8 °C 34841.9 hPa WNW 17.9 km/h 17.9 km/h 86 % 0 mm 0.0 W/m2 CLR
06:54 -12.6 °C -13.8 °C 34841.9 hPa NW 15 km/h 15 km/h 86 % 0 mm 0.0 W/m2 CLR
06:59 -12.6 °C -13.8 °C 34841.9 hPa Calm     86 % 0 mm 0.0 W/m2 CLR
07:04 -12.8 °C -14.1 °C 34841.9 hPa Calm     86 % 0 mm 0.0 W/m2 CLR
07:09 -12.8 °C -14.1 °C 34841.9 hPa Calm     86 % 0 mm 0.0 W/m2 CLR
07:10 -12.8 °C -14.1 °C 34841.9 hPa Calm     86 % 0 mm 0.0 W/m2 CLR
07:15 -13.2 °C -14.4 °C 34852.1 hPa Calm     86 % 0 mm 0.0 W/m2 CLR
07:16 -13.2 °C -14.4 °C 34852.1 hPa Calm     86 % 0 mm 0.0 W/m2 CLR
07:21 -13.2 °C -14.4 °C 34852.1 hPa Calm     86 % 0 mm 0.0 W/m2 CLR
07:26 -13.4 °C -14.7 °C 34852.1 hPa Calm     86 % 0 mm 0.0 W/m2 CLR
07:31 -13.8 °C -14.9 °C 34852.1 hPa Calm     86 % 0 mm 0.0 W/m2 CLR
07:34 -13.8 °C -14.9 °C 34852.1 hPa Calm     87 % 0 mm 0.0 W/m2 CLR
07:39 -14.1 °C -15.2 °C 34852.1 hPa Calm     87 % 0 mm 0.0 W/m2 CLR
07:41 -14.1 °C -15.2 °C 34852.1 hPa Calm     87 % 0 mm 0.0 W/m2 CLR
07:45 -14.1 °C -15.2 °C 34865.6 hPa Calm     87 % 0 mm 0.0 W/m2 CLR
07:50 -14.1 °C -15.3 °C 34865.6 hPa Calm     86 % 0 mm 0.0 W/m2 CLR
07:55 -14.4 °C -15.5 °C 34865.6 hPa Calm     87 % 0 mm 0.0 W/m2 CLR
08:00 -14.4 °C -15.4 °C 34865.6 hPa Calm     88 % 0 mm 0.0 W/m2 CLR
08:01 -14.4 °C -15.4 °C 34865.6 hPa Calm     88 % 0 mm 0.0 W/m2 CLR
08:06 -14.4 °C -15.3 °C 34865.6 hPa Calm     89 % 0 mm 0.0 W/m2 CLR
08:09 -14.4 °C -15.4 °C 34865.6 hPa Calm     88 % 0 mm 0.0 W/m2 CLR
08:13 -14.4 °C -15.3 °C 34865.6 hPa Calm     89 % 0 mm 0.0 W/m2 CLR
08:15 -14.7 °C -15.6 °C 34865.6 hPa Calm     89 % 0 mm 0.0 W/m2 OVC
08:19 -14.7 °C -15.7 °C 34865.6 hPa Calm     88 % 0 mm 0.0 W/m2 OVC
08:24 -14.7 °C -15.7 °C 34865.6 hPa Calm     88 % 0 mm 0.0 W/m2 OVC
08:25 -14.7 °C -15.7 °C 34865.6 hPa Calm     88 % 0 mm 0.0 W/m2 OVC
08:30 -14.7 °C -15.6 °C 34865.6 hPa Calm     89 % 0 mm 0.0 W/m2 OVC
08:31 -14.7 °C -15.6 °C 34865.6 hPa Calm     89 % 0 mm 5.0 W/m2 OVC
08:36 -14.7 °C -15.6 °C 34865.6 hPa Calm     89 % 0 mm 5.0 W/m2 OVC
08:37 -14.7 °C -15.6 °C 34865.6 hPa Calm     89 % 0 mm 7.0 W/m2 BKN
08:42 -14.7 °C -15.8 °C 34865.6 hPa Calm     87 % 0 mm 9.0 W/m2 BKN
08:43 -14.7 °C -15.8 °C 34865.6 hPa Calm     87 % 0 mm 9.0 W/m2 BKN
08:48 -15 °C -16.3 °C 34865.6 hPa NW 29.8 km/h 29.8 km/h 85 % 0 mm 11.0 W/m2 BKN
08:50 -15 °C -16.5 °C 34875.8 hPa NW 25.9 km/h 25.9 km/h 83 % 0 mm 12.0 W/m2 BKN
08:55 -15 °C -16.8 °C 34875.8 hPa NW 20.9 km/h 20.9 km/h 80 % 0 mm 16.0 W/m2 BKN
09:00 -15 °C -16.8 °C 34865.6 hPa NW 17.9 km/h 17.9 km/h 79 % 0 mm 21.0 W/m2 BKN
09:01 -15 °C -16.8 °C 34865.6 hPa Calm     79 % 0 mm 21.0 W/m2 BKN
09:06 -15 °C -16.9 °C 34865.6 hPa Calm     78 % 0 mm 25.0 W/m2 BKN
09:07 -15 °C -16.9 °C 34865.6 hPa NW 15.6 km/h 15.6 km/h 78 % 0 mm 26.0 W/m2 BKN
09:08 -15 °C -17.1 °C 34865.6 hPa WNW 15 km/h 15 km/h 77 % 0 mm 26.0 W/m2 BKN
09:12 -14.7 °C -16.8 °C 34865.6 hPa WNW 25.9 km/h 25.9 km/h 76 % 0 mm 30.0 W/m2 BKN
09:15 -14.4 °C -16.7 °C 34865.6 hPa NW 26.9 km/h 26.9 km/h 75 % 0 mm 33.0 W/m2 BKN
09:18 -14.4 °C -16.7 °C 34865.6 hPa NW 18.2 km/h 18.2 km/h 75 % 0 mm 35.0 W/m2 BKN
09:23 -13.8 °C -16.2 °C 34865.6 hPa NW 20.9 km/h 20.9 km/h 74 % 0 mm 39.0 W/m2 BKN
09:26 -13.4 °C -15.9 °C 34875.8 hPa NW 15 km/h 15 km/h 74 % 0 mm 39.0 W/m2 BKN
09:29 -13.4 °C -15.9 °C 34875.8 hPa NW 17.9 km/h 17.9 km/h 74 % 0 mm 51.0 W/m2 BKN
09:31 -13.4 °C -16 °C 34875.8 hPa WNW 17.9 km/h 17.9 km/h 73 % 0 mm 58.0 W/m2 BKN
09:36 -13.4 °C -16 °C 34875.8 hPa NNW 20.8 km/h 20.8 km/h 73 % 0 mm 56.0 W/m2 SCT
09:38 -13.4 °C -16 °C 34875.8 hPa NW 20.9 km/h 20.9 km/h 73 % 0 mm 62.0 W/m2 SCT
09:41 -13.4 °C -16.1 °C 34875.8 hPa NW 12.9 km/h 12.9 km/h 72 % 0 mm 79.0 W/m2 FEW
09:46 -13.4 °C -16.1 °C 34875.8 hPa Calm     72 % 0 mm 69.0 W/m2 FEW
09:52 -13.2 °C -15.9 °C 34875.8 hPa NW 15 km/h 15 km/h 71 % 0 mm 132.0 W/m2 CLR
09:57 -13.2 °C -16 °C 34875.8 hPa WNW 26.9 km/h 26.9 km/h 70 % 0 mm 105.0 W/m2 CLR
09:58 -13.2 °C -16 °C 34875.8 hPa NNW 23.3 km/h 23.3 km/h 70 % 0 mm 105.0 W/m2 CLR
10:01 -13.2 °C -16.1 °C 34875.8 hPa NNW 20.9 km/h 20.9 km/h 69 % 0 mm 163.0 W/m2 CLR
10:03 -13.2 °C -16.1 °C 34875.8 hPa NNW 35.7 km/h 35.7 km/h 69 % 0 mm 165.0 W/m2 CLR
10:08 -12.2 °C -15.4 °C 34889.3 hPa NNW 23.8 km/h 23.8 km/h 68 % 0 mm 144.0 W/m2 CLR
10:13 -11.9 °C -15.2 °C 34889.3 hPa NNW 26.9 km/h 26.9 km/h 67 % 0 mm 137.0 W/m2 CLR
10:14 -11.9 °C -15.3 °C 34889.3 hPa NW 29.8 km/h 29.8 km/h 66 % 0 mm 144.0 W/m2 CLR
10:19 -11.6 °C -15 °C 34889.3 hPa NNW 29.8 km/h 29.8 km/h 66 % 0 mm 137.0 W/m2 CLR
10:20 -11.6 °C -15 °C 34889.3 hPa North 31.1 km/h 31.1 km/h 66 % 0 mm 192.0 W/m2 CLR
10:24 -11.3 °C -14.8 °C 34889.3 hPa NW 35.7 km/h 35.7 km/h 65 % 0 mm 229.0 W/m2 CLR
10:25 -11.3 °C -14.8 °C 34889.3 hPa NW 29.8 km/h 29.8 km/h 65 % 0 mm 221.0 W/m2 CLR
10:29 -11.3 °C -14.8 °C 34889.3 hPa NW 35.7 km/h 35.7 km/h 65 % 0 mm 214.0 W/m2 CLR
10:34 -11 °C -14.6 °C 34899.5 hPa NW 29.8 km/h 29.8 km/h 65 % 0 mm 216.0 W/m2 CLR
10:37 -11 °C -14.7 °C 34899.5 hPa NW 29.8 km/h 29.8 km/h 64 % 0 mm 195.0 W/m2 CLR
10:40 -11 °C -14.7 °C 34889.3 hPa NNW 25.9 km/h 25.9 km/h 64 % 0 mm 183.0 W/m2 CLR
10:44 -11 °C -14.7 °C 34889.3 hPa North 26.9 km/h 26.9 km/h 64 % 0 mm 216.0 W/m2 CLR
10:48 -11 °C -14.8 °C 34889.3 hPa NNW 26.9 km/h 26.9 km/h 63 % 0 mm 257.0 W/m2 CLR
10:51 -11 °C -14.8 °C 34889.3 hPa North 29.8 km/h 29.8 km/h 63 % 0 mm 248.0 W/m2 CLR
10:53 -10.7 °C -14.5 °C 34889.3 hPa NW 29.8 km/h 29.8 km/h 63 % 0 mm 257.0 W/m2 CLR
10:58 -10.7 °C -14.6 °C 34889.3 hPa NW 44.7 km/h 44.7 km/h 62 % 0 mm 218.0 W/m2 CLR
10:59 -10.7 °C -14.6 °C 34889.3 hPa NW 41.7 km/h 41.7 km/h 62 % 0 mm 295.0 W/m2 CLR
11:04 -10.7 °C -14.6 °C 34889.3 hPa NW 35.7 km/h 35.7 km/h 62 % 0 mm 316.0 W/m2 CLR
11:05 -10.7 °C -14.6 °C 34889.3 hPa NW 44.7 km/h 44.7 km/h 62 % 0 mm 329.0 W/m2 CLR
11:10 -10.4 °C -14.5 °C 34889.3 hPa North 32.8 km/h 32.8 km/h 61 % 0 mm 341.0 W/m2 CLR
11:11 -10.4 °C -14.5 °C 34889.3 hPa NNW 36.2 km/h 38.1 km/h 61 % 0 mm 336.0 W/m2 CLR
11:13 -10.4 °C -14.5 °C 34889.3 hPa WNW 44.7 km/h 44.7 km/h 61 % 0 mm 350.0 W/m2 CLR
11:17 -10.4 °C -14.6 °C 34889.3 hPa North 47.6 km/h 47.6 km/h 60 % 0 mm 360.0 W/m2 CLR
11:20 -10.1 °C -14.3 °C 34875.8 hPa NNW 38.8 km/h 39.9 km/h 60 % 0 mm 380.0 W/m2 CLR
11:22 -10.1 °C -14.3 °C 34875.8 hPa NNW 59.5 km/h 59.5 km/h 60 % 0 mm 399.0 W/m2 CLR
11:27 -10.1 °C -14.4 °C 34875.8 hPa North 59.5 km/h 59.5 km/h 59 % 0 mm 464.0 W/m2 CLR
11:28 -10.1 °C -14.4 °C 34875.8 hPa NNW 53.6 km/h 53.6 km/h 59 % 0 mm 480.0 W/m2 CLR
11:32 -9.8 °C -14.3 °C 34875.8 hPa NW 50.7 km/h 50.7 km/h 58 % 0 mm 464.0 W/m2 CLR
11:37 -9.4 °C -14.1 °C 34875.8 hPa NNW 50.7 km/h 50.7 km/h 57 % 0 mm 475.0 W/m2 CLR
11:39 -9.4 °C -14.1 °C 34875.8 hPa NNW 49.2 km/h 49.2 km/h 57 % 0 mm 497.0 W/m2 CLR
11:40 -9.4 °C -14.1 °C 34875.8 hPa North 59.5 km/h 59.5 km/h 57 % 0 mm 489.0 W/m2 CLR
11:45 -9.4 °C -14.3 °C 34875.8 hPa NNW 59.5 km/h 59.5 km/h 56 % 0 mm 406.0 W/m2 CLR
11:49 -9.4 °C -14.3 °C 34875.8 hPa North 35.7 km/h 35.7 km/h 56 % 0 mm 264.0 W/m2 CLR
11:51 -9.4 °C -14.3 °C 34875.8 hPa NNW 53.6 km/h 53.6 km/h 56 % 0 mm 329.0 W/m2 CLR
11:56 -9.1 °C -14.1 °C 34865.6 hPa NW 56.6 km/h 56.6 km/h 55 % 0 mm 369.0 W/m2 CLR
11:57 -9.1 °C -14 °C 34875.8 hPa NW 56.6 km/h 56.6 km/h 56 % 0 mm 362.0 W/m2 CLR
12:01 -9.1 °C -14.1 °C 34875.8 hPa NW 50.7 km/h 50.7 km/h 55 % 0 mm 378.0 W/m2 CLR
12:04 -9.1 °C -14.1 °C 34875.8 hPa NW 50.7 km/h 50.7 km/h 55 % 0 mm 475.0 W/m2 CLR
12:07 -9.1 °C -14.1 °C 34865.6 hPa North 50.7 km/h 50.7 km/h 55 % 0 mm 496.0 W/m2 CLR
12:10 -8.8 °C -14 °C 34875.8 hPa NNW 50.7 km/h 50.7 km/h 54 % 0 mm 501.0 W/m2 CLR
12:15 -8.8 °C -14.2 °C 34875.8 hPa NNW 35.7 km/h 35.7 km/h 53 % 0 mm 260.0 W/m2 CLR
12:16 -8.8 °C -14 °C 34875.8 hPa NNW 44.1 km/h 44.1 km/h 54 % 0 mm 311.0 W/m2 CLR
12:19 -8.8 °C -14 °C 34865.6 hPa NNW 47.6 km/h 47.6 km/h 54 % 0 mm 459.0 W/m2 CLR
12:21 -8.8 °C -14.2 °C 34875.8 hPa NW 53.6 km/h 53.6 km/h 53 % 0 mm 489.0 W/m2 CLR
12:24 -8.8 °C -14.2 °C 34865.6 hPa NW 62.6 km/h 62.6 km/h 53 % 0 mm 457.0 W/m2 CLR
12:26 -8.8 °C -14.2 °C 34865.6 hPa NW 65.5 km/h 65.5 km/h 53 % 0 mm 436.0 W/m2 CLR
12:35 -8.8 °C -14.2 °C 34865.6 hPa NW 68.6 km/h 68.6 km/h 53 % 0 mm 401.0 W/m2 CLR
12:37 -8.5 °C -13.8 °C 34865.6 hPa North 68.6 km/h 68.6 km/h 53 % 0 mm 461.0 W/m2 CLR
12:40 -8.5 °C -13.8 °C 34865.6 hPa North 68.6 km/h 68.6 km/h 53 % 0 mm 469.0 W/m2 CLR
12:43 -8.5 °C -13.8 °C 34852.1 hPa North 59.5 km/h 59.5 km/h 53 % 0 mm 418.0 W/m2 CLR
12:46 -8.5 °C -14 °C 34852.1 hPa NNW 49.2 km/h 49.2 km/h 52 % 0 mm 455.0 W/m2 CLR
12:48 -8.5 °C -14 °C 34852.1 hPa NNW 59.5 km/h 59.5 km/h 52 % 0 mm 459.0 W/m2 CLR
12:51 -8.5 °C -14 °C 34852.1 hPa NW 68.6 km/h 68.6 km/h 52 % 0 mm 459.0 W/m2 CLR
12:53 -8.8 °C -14.3 °C 34852.1 hPa NNW 69.8 km/h 69.8 km/h 52 % 0 mm 469.0 W/m2 CLR
12:57 -8.5 °C -14 °C 34852.1 hPa North 53.6 km/h 53.6 km/h 52 % 0 mm 461.0 W/m2 CLR
13:00 -8.5 °C -14 °C 34852.1 hPa NNW 68.6 km/h 68.6 km/h 52 % 0 mm 455.0 W/m2 CLR
13:05 -8.5 °C -14 °C 34852.1 hPa NNW 62.6 km/h 62.6 km/h 52 % 0 mm 367.0 W/m2 CLR
13:10 -8.5 °C -14 °C 34852.1 hPa North 67.3 km/h 67.3 km/h 52 % 0 mm 253.0 W/m2 CLR
13:11 -8.2 °C -13.7 °C 34852.1 hPa NNW 74.5 km/h 74.5 km/h 52 % 0 mm 223.0 W/m2 CLR
13:16 -8.5 °C -14 °C 34841.9 hPa NNW 67.3 km/h 67.3 km/h 52 % 0 mm 445.0 W/m2 CLR
13:21 -8.5 °C -14 °C 34841.9 hPa North 51.8 km/h 51.8 km/h 52 % 0 mm 418.0 W/m2 CLR
13:23 -8.5 °C -14 °C 34841.9 hPa NW 50.7 km/h 50.7 km/h 52 % 0 mm 418.0 W/m2 CLR
13:28 -8.5 °C -14.2 °C 34831.8 hPa NNE 59.5 km/h 59.5 km/h 51 % 0 mm 415.0 W/m2 CLR
13:34 -8.2 °C -13.7 °C 34818.2 hPa NW 41.7 km/h 41.7 km/h 52 % 0 mm 413.0 W/m2 CLR
13:39 -8.2 °C -13.9 °C 34818.2 hPa NW 44.7 km/h 44.7 km/h 51 % 0 mm 415.0 W/m2 CLR
13:40 -8.2 °C -13.9 °C 34818.2 hPa NW 49.2 km/h 49.2 km/h 51 % 0 mm 403.0 W/m2 CLR
13:46 -8.2 °C -13.9 °C 34818.2 hPa NNW 53.6 km/h 53.6 km/h 51 % 0 mm 408.0 W/m2 CLR
13:47 -8.2 °C -14.1 °C 34818.2 hPa NNW 50.7 km/h 50.7 km/h 50 % 0 mm 406.0 W/m2 CLR
13:51 -8.2 °C -13.9 °C 34818.2 hPa NNW 53.6 km/h 53.6 km/h 51 % 0 mm 404.0 W/m2 CLR
13:54 -8.2 °C -14.1 °C 34818.2 hPa NW 50.7 km/h 50.7 km/h 50 % 0 mm 373.0 W/m2 CLR
13:56 -7.9 °C -13.8 °C 34831.8 hPa NW 56.6 km/h 56.6 km/h 50 % 0 mm 390.0 W/m2 CLR
14:01 -8.2 °C -14.1 °C 34818.2 hPa NNW 77.4 km/h 77.4 km/h 50 % 0 mm 403.0 W/m2 CLR
14:05 -8.2 °C -14.1 °C 34818.2 hPa NNW 71.5 km/h 71.5 km/h 50 % 0 mm 397.0 W/m2 CLR
14:06 -8.2 °C -14.1 °C 34818.2 hPa North 65.5 km/h 65.5 km/h 50 % 0 mm 394.0 W/m2 CLR
14:10 -7.9 °C -13.8 °C 34818.2 hPa NNW 71.5 km/h 71.5 km/h 50 % 0 mm 392.0 W/m2 CLR
14:14 -8.2 °C -14.1 °C 34818.2 hPa NNW 50.7 km/h 50.7 km/h 50 % 0 mm 376.0 W/m2 CLR
14:20 -7.9 °C -13.9 °C 34818.2 hPa North 71.5 km/h 71.5 km/h 49 % 0 mm 399.0 W/m2 CLR
14:21 -7.9 °C -13.8 °C 34808.1 hPa NNW 50.7 km/h 50.7 km/h 50 % 0 mm 388.0 W/m2 CLR
14:25 -7.9 °C -13.9 °C 34808.1 hPa North 62.1 km/h 62.1 km/h 49 % 0 mm 374.0 W/m2 CLR
14:31 -7.9 °C -13.9 °C 34808.1 hPa NW 59.5 km/h 59.5 km/h 49 % 0 mm 172.0 W/m2 CLR
14:36 -7.9 °C -13.9 °C 34818.2 hPa NW 62.6 km/h 62.6 km/h 49 % 0 mm 323.0 W/m2 CLR
14:37 -7.9 °C -13.9 °C 34808.1 hPa NNW 62.6 km/h 62.6 km/h 49 % 0 mm 329.0 W/m2 CLR
14:42 -7.9 °C -13.8 °C 34808.1 hPa North 49.2 km/h 49.2 km/h 50 % 0 mm 353.0 W/m2 CLR
14:47 -7.9 °C -13.9 °C 34808.1 hPa NNW 54.4 km/h 54.4 km/h 49 % 0 mm 352.0 W/m2 CLR
14:48 -7.9 °C -13.9 °C 34808.1 hPa North 62.6 km/h 62.6 km/h 49 % 0 mm 355.0 W/m2 CLR
14:53 -7.6 °C -13.7 °C 34808.1 hPa NNW 50.7 km/h 50.7 km/h 49 % 0 mm 374.0 W/m2 CLR
14:58 -7.6 °C -13.7 °C 34808.1 hPa North 56.6 km/h 56.6 km/h 49 % 0 mm 385.0 W/m2 CLR
15:03 -7.6 °C -13.7 °C 34808.1 hPa NW 62.6 km/h 62.6 km/h 49 % 0 mm 339.0 W/m2 CLR
15:08 -7.6 °C -13.7 °C 34808.1 hPa NNW 68.6 km/h 68.6 km/h 49 % 0 mm 70.0 W/m2 CLR
15:10 -7.9 °C -13.9 °C 34808.1 hPa North 68.6 km/h 68.6 km/h 49 % 0 mm 65.0 W/m2 CLR
15:15 -8.2 °C -14.1 °C 34797.9 hPa NW 56.6 km/h 56.6 km/h 50 % 0 mm 69.0 W/m2 FEW
15:17 -8.2 °C -13.9 °C 34797.9 hPa NNW 38.8 km/h 38.8 km/h 51 % 0 mm 72.0 W/m2 FEW
15:19 -8.2 °C -13.9 °C 34808.1 hPa NW 56.6 km/h 56.6 km/h 51 % 0 mm 62.0 W/m2 FEW
15:22 -8.5 °C -14.2 °C 34808.1 hPa NW 47.6 km/h 47.6 km/h 51 % 0 mm 49.0 W/m2 SCT
15:25 -8.5 °C -14 °C 34808.1 hPa NNW 44.1 km/h 44.1 km/h 52 % 0 mm 58.0 W/m2 SCT
15:28 -8.5 °C -14 °C 34808.1 hPa NNW 41.4 km/h 41.4 km/h 52 % 0 mm 62.0 W/m2 SCT
15:33 -8.5 °C -14 °C 34818.2 hPa NW 59.5 km/h 59.5 km/h 52 % 0 mm 47.0 W/m2 SCT
15:34 -8.5 °C -14 °C 34818.2 hPa NNW 68.6 km/h 68.6 km/h 52 % 0 mm 49.0 W/m2 SCT
15:40 -8.5 °C -14 °C 34818.2 hPa NNW 68.6 km/h 68.6 km/h 52 % 0 mm 125.0 W/m2 SCT
15:45 -8.5 °C -14 °C 34831.8 hPa WNW 74.5 km/h 74.5 km/h 52 % 0 mm 91.0 W/m2 FEW
15:46 -8.5 °C -13.8 °C 34831.8 hPa NNW 72.6 km/h 72.6 km/h 53 % 0 mm 93.0 W/m2 CLR
15:48 -8.5 °C -13.8 °C 34831.8 hPa NNW 65.5 km/h 65.5 km/h 53 % 0 mm 84.0 W/m2 CLR
15:52 -8.5 °C -13.8 °C 34831.8 hPa NNW 74.5 km/h 74.5 km/h 53 % 0 mm 114.0 W/m2 CLR
15:55 -8.2 °C -13.6 °C 34831.8 hPa North 71.5 km/h 71.5 km/h 53 % 0 mm 107.0 W/m2 CLR
15:57 -8.2 °C -13.6 °C 34831.8 hPa NNW 83.4 km/h 83.4 km/h 53 % 0 mm 98.0 W/m2 CLR
16:01 -8.5 °C -13.8 °C 34831.8 hPa North 72.6 km/h 72.6 km/h 53 % 0 mm 113.0 W/m2 CLR
16:02 -8.5 °C -13.8 °C 34831.8 hPa NNW 71.5 km/h 71.5 km/h 53 % 0 mm 84.0 W/m2 CLR
16:07 -8.5 °C -13.8 °C 34818.2 hPa NW 68.6 km/h 68.6 km/h 53 % 0 mm 56.0 W/m2 CLR
16:08 -8.5 °C -13.8 °C 34818.2 hPa NNW 56.6 km/h 56.6 km/h 53 % 0 mm 60.0 W/m2 FEW
16:12 -8.5 °C -13.8 °C 34831.8 hPa NW 44.7 km/h 44.7 km/h 53 % 0 mm 88.0 W/m2 FEW
16:14 -8.5 °C -13.8 °C 34831.8 hPa NW 68.6 km/h 68.6 km/h 53 % 0 mm 84.0 W/m2 FEW
16:19 -8.5 °C -13.7 °C 34831.8 hPa NNW 65.5 km/h 65.5 km/h 54 % 0 mm 90.0 W/m2 FEW
16:20 -8.8 °C -14 °C 34831.8 hPa North 65.5 km/h 65.5 km/h 54 % 0 mm 63.0 W/m2 FEW
16:25 -8.8 °C -14 °C 34831.8 hPa North 62.6 km/h 62.6 km/h 54 % 0 mm 90.0 W/m2 FEW
16:27 -8.8 °C -14 °C 34831.8 hPa NNW 59.5 km/h 59.5 km/h 54 % 0 mm 100.0 W/m2 FEW
16:28 -8.8 °C -14 °C 34831.8 hPa NW 50.7 km/h 50.7 km/h 54 % 0 mm 107.0 W/m2 FEW
16:33 -8.8 °C -14 °C 34831.8 hPa NNW 41.7 km/h 41.7 km/h 54 % 0 mm 121.0 W/m2 FEW
16:38 -8.8 °C -14 °C 34831.8 hPa NNW 50.7 km/h 50.7 km/h 54 % 0 mm 35.0 W/m2 CLR
16:44 -8.8 °C -13.8 °C 34831.8 hPa NNW 51.8 km/h 51.8 km/h 55 % 0 mm 86.0 W/m2 CLR
16:48 -8.8 °C -13.8 °C 34818.2 hPa NW 53.6 km/h 53.6 km/h 55 % 0 mm 74.0 W/m2 FEW
16:51 -8.8 °C -13.8 °C 34818.2 hPa NW 53.6 km/h 53.6 km/h 55 % 0 mm 65.0 W/m2 FEW
16:53 -8.8 °C -13.8 °C 34818.2 hPa NW 35.7 km/h 35.7 km/h 55 % 0 mm 53.0 W/m2 SCT
16:58 -8.8 °C -13.8 °C 34818.2 hPa NNW 44.7 km/h 44.7 km/h 55 % 0 mm 44.0 W/m2 BKN
16:59 -8.8 °C -13.8 °C 34818.2 hPa NW 44.7 km/h 44.7 km/h 55 % 0 mm 44.0 W/m2 BKN
17:04 -8.8 °C -13.8 °C 34818.2 hPa NNW 50.7 km/h 50.7 km/h 55 % 0 mm 33.0 W/m2 BKN
17:06 -8.8 °C -13.8 °C 34818.2 hPa North 38.8 km/h 38.8 km/h 55 % 0 mm 32.0 W/m2 BKN
17:09 -9.1 °C -14 °C 34818.2 hPa NNW 51.8 km/h 51.8 km/h 56 % 0 mm 32.0 W/m2 BKN
17:14 -9.1 °C -14 °C 34808.1 hPa North 74.5 km/h 74.5 km/h 56 % 0 mm 21.0 W/m2 BKN
17:15 -9.1 °C -14 °C 34818.2 hPa NNW 74.5 km/h 74.5 km/h 56 % 0 mm 21.0 W/m2 BKN
17:20 -9.1 °C -13.8 °C 34808.1 hPa North 62.6 km/h 62.6 km/h 57 % 0 mm 16.0 W/m2 BKN
17:25 -9.1 °C -13.8 °C 34808.1 hPa NW 36.2 km/h 36.2 km/h 57 % 0 mm 14.0 W/m2 BKN
17:26 -9.1 °C -13.8 °C 34818.2 hPa North 38.8 km/h 38.8 km/h 57 % 0 mm 12.0 W/m2 BKN
17:31 -9.1 °C -13.7 °C 34818.2 hPa NW 38.8 km/h 38.8 km/h 58 % 0 mm 11.0 W/m2 BKN
17:37 -9.4 °C -14 °C 34818.2 hPa North 50.7 km/h 50.7 km/h 58 % 0 mm 9.0 W/m2 BKN
17:42 -9.4 °C -13.8 °C 34818.2 hPa North 38.8 km/h 38.8 km/h 59 % 0 mm 5.0 W/m2 OVC
17:47 -9.4 °C -13.8 °C 34818.2 hPa NW 44.7 km/h 44.7 km/h 59 % 0 mm 0.0 W/m2 OVC
17:49 -9.4 °C -13.8 °C 34818.2 hPa NW 32.8 km/h 32.8 km/h 59 % 0 mm 0.0 W/m2 OVC
17:53 -9.4 °C -13.8 °C 34818.2 hPa NNW 35.7 km/h 35.7 km/h 59 % 0 mm 0.0 W/m2 OVC
17:54 -9.4 °C -13.8 °C 34818.2 hPa NNW 44.7 km/h 44.7 km/h 59 % 0 mm 0.0 W/m2 CLR
18:03 -9.4 °C -13.7 °C 34808.1 hPa NW 50.7 km/h 50.7 km/h 60 % 0 mm 0.0 W/m2 CLR
18:04 -9.4 °C -13.7 °C 34808.1 hPa NNW 50.7 km/h 50.7 km/h 60 % 0 mm 0.0 W/m2 CLR
18:05 -9.4 °C -13.7 °C 34818.2 hPa NW 50.7 km/h 50.7 km/h 60 % 0 mm 0.0 W/m2 CLR
18:09 -9.8 °C -14 °C 34808.1 hPa NW 38.8 km/h 38.8 km/h 60 % 0 mm 0.0 W/m2 CLR
18:14 -9.8 °C -13.9 °C 34808.1 hPa NW 35.7 km/h 35.7 km/h 61 % 0 mm 0.0 W/m2 CLR
18:15 -9.8 °C -13.9 °C 34808.1 hPa NNW 35.7 km/h 35.7 km/h 61 % 0 mm 0.0 W/m2 CLR
18:20 -9.8 °C -13.9 °C 34808.1 hPa NNW 35.7 km/h 35.7 km/h 61 % 0 mm 0.0 W/m2 CLR
18:21 -9.8 °C -13.9 °C 34808.1 hPa NW 35.7 km/h 35.7 km/h 61 % 0 mm 0.0 W/m2 CLR
18:22 -9.8 °C -13.9 °C 34808.1 hPa NW 33.6 km/h 35.7 km/h 61 % 0 mm 0.0 W/m2 CLR
18:26 -9.8 °C -13.9 °C 34808.1 hPa NW 44.1 km/h 44.1 km/h 61 % 0 mm 0.0 W/m2 CLR
18:28 -9.8 °C -13.9 °C 34808.1 hPa NW 44.7 km/h 44.7 km/h 61 % 0 mm 0.0 W/m2 CLR
18:31 -10.1 °C -14.2 °C 34808.1 hPa NW 44.7 km/h 44.7 km/h 61 % 0 mm 0.0 W/m2 CLR
18:36 -10.1 °C -14.2 °C 34818.2 hPa NNW 41.7 km/h 41.7 km/h 61 % 0 mm 0.0 W/m2 CLR
18:37 -10.1 °C -14.2 °C 34818.2 hPa NNW 29.8 km/h 29.8 km/h 61 % 0 mm 0.0 W/m2 CLR
18:42 -10.1 °C -14.1 °C 34818.2 hPa NW 35.7 km/h 35.7 km/h 62 % 0 mm 0.0 W/m2 CLR
18:47 -10.1 °C -14.1 °C 34818.2 hPa NW 33.6 km/h 33.6 km/h 62 % 0 mm 0.0 W/m2 CLR
18:53 -10.1 °C -14.1 °C 34818.2 hPa North 33.6 km/h 33.6 km/h 62 % 0 mm 0.0 W/m2 CLR
18:58 -10.1 °C -14.1 °C 34818.2 hPa NW 35.7 km/h 35.7 km/h 62 % 0 mm 0.0 W/m2 CLR
19:02 -10.1 °C -14.1 °C 34831.8 hPa NW 29.8 km/h 29.8 km/h 62 % 0 mm 0.0 W/m2 CLR
19:03 -10.1 °C -13.9 °C 34831.8 hPa NW 38.8 km/h 38.8 km/h 63 % 0 mm 0.0 W/m2 CLR
19:08 -10.1 °C -13.9 °C 34831.8 hPa NW 44.7 km/h 44.7 km/h 63 % 0 mm 0.0 W/m2 CLR
19:09 -10.1 °C -13.9 °C 34831.8 hPa NNW 41.7 km/h 41.7 km/h 63 % 0 mm 0.0 W/m2 CLR
19:11 -10.1 °C -13.9 °C 34818.2 hPa NW 32.8 km/h 32.8 km/h 63 % 0 mm 0.0 W/m2 CLR
19:15 -10.1 °C -13.9 °C 34818.2 hPa NNW 35.7 km/h 35.7 km/h 63 % 0 mm 0.0 W/m2 CLR
19:20 -10.1 °C -13.9 °C 34831.8 hPa NNW 53.6 km/h 53.6 km/h 63 % 0 mm 0.0 W/m2 CLR
19:21 -10.1 °C -13.9 °C 34831.8 hPa NNW 53.6 km/h 53.6 km/h 63 % 0 mm 0.0 W/m2 CLR
19:26 -10.1 °C -13.9 °C 34831.8 hPa NNW 47.6 km/h 47.6 km/h 63 % 0 mm 0.0 W/m2 CLR
19:28 -10.1 °C -13.9 °C 34831.8 hPa NW 44.7 km/h 44.7 km/h 63 % 0 mm 0.0 W/m2 CLR
19:31 -10.1 °C -13.9 °C 34831.8 hPa NW 50.7 km/h 50.7 km/h 63 % 0 mm 0.0 W/m2 CLR
19:33 -10.1 °C -13.9 °C 34841.9 hPa NW 47.6 km/h 47.6 km/h 63 % 0 mm 0.0 W/m2 CLR
19:38 -10.1 °C -13.9 °C 34841.9 hPa NW 50.7 km/h 50.7 km/h 63 % 0 mm 0.0 W/m2 CLR
19:40 -10.1 °C -13.9 °C 34841.9 hPa NW 44.7 km/h 44.7 km/h 63 % 0 mm 0.0 W/m2 CLR
19:45 -10.1 °C -13.8 °C 34841.9 hPa NNW 32.8 km/h 32.8 km/h 64 % 0 mm 0.0 W/m2 CLR
19:50 -10.1 °C -13.8 °C 34841.9 hPa NW 38.8 km/h 38.8 km/h 64 % 0 mm 0.0 W/m2 CLR
19:52 -10.1 °C -13.8 °C 34841.9 hPa NW 29.8 km/h 29.8 km/h 64 % 0 mm 0.0 W/m2 CLR
19:57 -10.4 °C -14.1 °C 34852.1 hPa NNW 29.8 km/h 29.8 km/h 64 % 0 mm 0.0 W/m2 CLR
19:58 -10.4 °C -14.1 °C 34852.1 hPa NW 23.8 km/h 23.8 km/h 64 % 0 mm 0.0 W/m2 CLR
19:59 -10.4 °C -14.1 °C 34852.1 hPa NW 29.8 km/h 29.8 km/h 64 % 0 mm 0.0 W/m2 CLR
20:04 -10.4 °C -13.9 °C 34852.1 hPa NW 29.8 km/h 29.8 km/h 65 % 0 mm 0.0 W/m2 CLR
20:08 -10.4 °C -13.9 °C 34852.1 hPa NNW 35.7 km/h 35.7 km/h 65 % 0 mm 0.0 W/m2 CLR
20:09 -10.4 °C -13.9 °C 34852.1 hPa NW 35.7 km/h 35.7 km/h 65 % 0 mm 0.0 W/m2 CLR
20:14 -10.4 °C -13.9 °C 34852.1 hPa NW 32.8 km/h 32.8 km/h 65 % 0 mm 0.0 W/m2 CLR
20:15 -10.4 °C -13.9 °C 34852.1 hPa NNW 32.8 km/h 32.8 km/h 65 % 0 mm 0.0 W/m2 CLR
20:16 -10.4 °C -13.9 °C 34852.1 hPa NW 35.7 km/h 35.7 km/h 65 % 0 mm 0.0 W/m2 CLR
20:21 -10.4 °C -13.9 °C 34865.6 hPa NW 50.7 km/h 50.7 km/h 65 % 0 mm 0.0 W/m2 CLR
20:26 -10.4 °C -13.9 °C 34865.6 hPa NNW 38.8 km/h 38.8 km/h 65 % 0 mm 0.0 W/m2 CLR
20:33 -10.4 °C -13.9 °C 34865.6 hPa NNW 29.8 km/h 29.8 km/h 65 % 0 mm 0.0 W/m2 CLR
20:35 -10.4 °C -13.9 °C 34865.6 hPa NW 46.7 km/h 46.7 km/h 65 % 0 mm 0.0 W/m2 CLR
20:39 -10.1 °C -13.7 °C 34865.6 hPa NW 38.8 km/h 38.8 km/h 65 % 0 mm 0.0 W/m2 CLR
20:43 -10.1 °C -13.6 °C 34865.6 hPa NNW 54.4 km/h 54.4 km/h 66 % 0 mm 0.0 W/m2 CLR
20:46 -10.1 °C -13.6 °C 34865.6 hPa NNW 47.6 km/h 47.6 km/h 66 % 0 mm 0.0 W/m2 CLR
20:51 -10.1 °C -13.6 °C 34865.6 hPa NW 29.8 km/h 29.8 km/h 66 % 0 mm 0.0 W/m2 CLR
20:52 -10.1 °C -13.7 °C 34865.6 hPa WNW 38.8 km/h 38.8 km/h 65 % 0 mm 0.0 W/m2 CLR
20:57 -10.1 °C -13.7 °C 34865.6 hPa NW 35.7 km/h 35.7 km/h 65 % 0 mm 0.0 W/m2 CLR
21:02 -10.1 °C -13.6 °C 34875.8 hPa North 38.8 km/h 38.8 km/h 66 % 0 mm 0.0 W/m2 CLR
21:06 -10.4 °C -13.8 °C 34875.8 hPa NW 38.8 km/h 38.8 km/h 66 % 0 mm 0.0 W/m2 CLR
21:07 -10.4 °C -13.8 °C 34875.8 hPa NW 41.7 km/h 41.7 km/h 66 % 0 mm 0.0 W/m2 CLR
21:13 -10.1 °C -13.6 °C 34875.8 hPa NNW 44.7 km/h 44.7 km/h 66 % 0 mm 0.0 W/m2 CLR
21:17 -10.1 °C -13.6 °C 34875.8 hPa NW 38.8 km/h 38.8 km/h 66 % 0 mm 0.0 W/m2 CLR
21:20 -10.1 °C -13.6 °C 34875.8 hPa NNW 41.7 km/h 41.7 km/h 66 % 0 mm 0.0 W/m2 CLR
21:23 -10.1 °C -13.6 °C 34875.8 hPa NW 32.8 km/h 32.8 km/h 66 % 0 mm 0.0 W/m2 CLR
21:26 -10.4 °C -13.8 °C 34875.8 hPa NW 29.8 km/h 29.8 km/h 66 % 0 mm 0.0 W/m2 CLR
21:28 -10.1 °C -13.6 °C 34875.8 hPa NW 29.8 km/h 29.8 km/h 66 % 0 mm 0.0 W/m2 CLR
21:33 -10.1 °C -13.6 °C 34875.8 hPa NNW 38.8 km/h 38.8 km/h 66 % 0 mm 0.0 W/m2 CLR
21:38 -10.1 °C -13.4 °C 34875.8 hPa NNW 33.6 km/h 33.6 km/h 67 % 0 mm 0.0 W/m2 CLR
21:41 -10.4 °C -13.7 °C 34875.8 hPa NW 35.7 km/h 35.7 km/h 67 % 0 mm 0.0 W/m2 CLR
21:46 -10.4 °C -13.7 °C 34875.8 hPa NNW 38.8 km/h 38.8 km/h 67 % 0 mm 0.0 W/m2 CLR
21:47 -10.4 °C -13.7 °C 34875.8 hPa NW 38.8 km/h 38.8 km/h 67 % 0 mm 0.0 W/m2 CLR
21:51 -10.4 °C -13.7 °C 34875.8 hPa NNW 41.7 km/h 41.7 km/h 67 % 0 mm 0.0 W/m2 CLR
21:52 -10.4 °C -13.7 °C 34875.8 hPa NW 41.7 km/h 41.7 km/h 67 % 0 mm 0.0 W/m2 CLR
21:57 -10.4 °C -13.7 °C 34875.8 hPa NW 36.2 km/h 36.2 km/h 67 % 0 mm 0.0 W/m2 CLR
21:59 -10.4 °C -13.7 °C 34875.8 hPa WNW 47.6 km/h 47.6 km/h 67 % 0 mm 0.0 W/m2 CLR
22:07 -10.4 °C -13.7 °C 34875.8 hPa NNW 41.7 km/h 41.7 km/h 67 % 0 mm 0.0 W/m2 CLR
22:12 -10.4 °C -13.7 °C 34875.8 hPa NW 29.8 km/h 29.8 km/h 67 % 0 mm 0.0 W/m2 CLR
22:17 -10.4 °C -13.6 °C 34875.8 hPa WNW 44.7 km/h 44.7 km/h 68 % 0 mm 0.0 W/m2 CLR
22:23 -10.4 °C -13.6 °C 34875.8 hPa NW 38.8 km/h 38.8 km/h 68 % 0 mm 0.0 W/m2 CLR
22:28 -10.7 °C -13.9 °C 34875.8 hPa WNW 29.8 km/h 29.8 km/h 68 % 0 mm 0.0 W/m2 CLR
22:29 -10.7 °C -13.9 °C 34875.8 hPa NNW 29.8 km/h 29.8 km/h 68 % 0 mm 0.0 W/m2 CLR
22:33 -10.7 °C -13.8 °C 34875.8 hPa NW 29.8 km/h 29.8 km/h 69 % 0 mm 0.0 W/m2 CLR
22:38 -10.7 °C -13.8 °C 34875.8 hPa NW 44.7 km/h 44.7 km/h 69 % 0 mm 0.0 W/m2 CLR
22:39 -11 °C -14.1 °C 34875.8 hPa WNW 35.7 km/h 35.7 km/h 69 % 0 mm 0.0 W/m2 CLR
22:44 -11 °C -14.1 °C 34875.8 hPa NNW 35.7 km/h 35.7 km/h 69 % 0 mm 0.0 W/m2 CLR
22:49 -11 °C -13.9 °C 34875.8 hPa NW 47.6 km/h 47.6 km/h 70 % 0 mm 0.0 W/m2 CLR
22:50 -11 °C -14.1 °C 34875.8 hPa NW 35.7 km/h 35.7 km/h 69 % 0 mm 0.0 W/m2 CLR
22:55 -10.7 °C -13.8 °C 34875.8 hPa NW 47.6 km/h 47.6 km/h 69 % 0 mm 0.0 W/m2 CLR
22:56 -10.7 °C -13.8 °C 34875.8 hPa NW 47.6 km/h 47.6 km/h 69 % 0 mm 0.0 W/m2 CLR
22:58 -10.7 °C -13.8 °C 34875.8 hPa NW 41.7 km/h 41.7 km/h 69 % 0 mm 0.0 W/m2 CLR
23:03 -10.7 °C -13.7 °C 34875.8 hPa NW 35.7 km/h 35.7 km/h 70 % 0 mm 0.0 W/m2 CLR
23:04 -10.7 °C -13.7 °C 34875.8 hPa NNW 44.7 km/h 44.7 km/h 70 % 0 mm 0.0 W/m2 CLR
23:08 -10.7 °C -13.7 °C 34875.8 hPa NNW 47.6 km/h 47.6 km/h 70 % 0 mm 0.0 W/m2 CLR
23:10 -10.7 °C -13.7 °C 34875.8 hPa NW 38.8 km/h 38.8 km/h 70 % 0 mm 0.0 W/m2 CLR
23:15 -10.7 °C -13.7 °C 34889.3 hPa NW 29.8 km/h 29.8 km/h 70 % 0 mm 0.0 W/m2 CLR
23:16 -10.7 °C -13.5 °C 34889.3 hPa NW 29.8 km/h 29.8 km/h 71 % 0 mm 0.0 W/m2 CLR
23:19 -10.7 °C -13.5 °C 34889.3 hPa NW 29.8 km/h 29.8 km/h 71 % 0 mm 0.0 W/m2 CLR
23:24 -10.7 °C -13.5 °C 34889.3 hPa NW 29.8 km/h 29.8 km/h 71 % 0 mm 0.0 W/m2 CLR
23:29 -11 °C -13.8 °C 34889.3 hPa NW 23.8 km/h 23.8 km/h 71 % 0 mm 0.0 W/m2 CLR
23:34 -11 °C -13.8 °C 34889.3 hPa NW 29.8 km/h 29.8 km/h 71 % 0 mm 0.0 W/m2 CLR
23:39 -11 °C -13.8 °C 34889.3 hPa NW 32.8 km/h 32.8 km/h 71 % 0 mm 0.0 W/m2 CLR
23:45 -10.7 °C -13.5 °C 34889.3 hPa NW 29.8 km/h 29.8 km/h 71 % 0 mm 0.0 W/m2 CLR
23:47 -10.7 °C -13.5 °C 34889.3 hPa NW 32.8 km/h 32.8 km/h 71 % 0 mm 0.0 W/m2 CLR
23:50 -10.7 °C -13.5 °C 34889.3 hPa WNW 29.8 km/h 29.8 km/h 71 % 0 mm 0.0 W/m2 CLR
23:55 -10.7 °C -13.5 °C 34889.3 hPa WNW 26.9 km/h 26.9 km/h 71 % 0 mm 0.0 W/m2 CLR
23:56 -10.7 °C -13.5 °C 34889.3 hPa NW 20.9 km/h 20.9 km/h 71 % 0 mm 0.0 W/m2 CLR
23:58 -10.7 °C -13.5 °C 34889.3 hPa WNW 32.8 km/h 32.8 km/h 71 % 0 mm 0.0 W/m2 CLR
Lo Temps de Massalio
Compliments of Weather Underground - 1.5 mb